Time;durP1;ratioP1;P1;durP2;ratioP2;P2;SDS_P1;SDS_P2;PMS_P1;PMS_P2;Temp;Humidity;BMP_temperature;BMP_pressure;BME280_temperature;BME280_humidity;BME280_pressure;Samples;Min_cycle;Max_cycle;Signal;HPM_P1;HPM_P2
2021/05/17 00:01:18;;;;;;;7.83;1.80;;;;;;;15.37;64.82;100912.78;5097740;28;20048;-74
2021/05/17 00:03:48;;;;;;;11.67;3.03;;;;;;;15.34;64.61;100902.13;5103980;27;20047;-74
2021/05/17 00:06:15;;;;;;;;;;;;;;;15.37;64.97;100895.91;5098935;28;20543;-76
2021/05/17 00:08:45;;;;;;;5.13;1.47;;;;;;;15.24;64.73;100871.31;5097458;28;20266;-74
2021/05/17 00:11:13;;;;;;;6.15;2.10;;;;;;;15.16;64.61;100872.03;5098877;28;20493;-73
2021/05/17 00:13:40;;;;;;;4.97;1.75;;;;;;;15.25;64.70;100887.09;5099150;28;20040;-76
2021/05/17 00:16:07;;;;;;;12.60;1.65;;;;;;;15.29;64.45;100882.53;5096605;28;20040;-77
2021/05/17 00:18:34;;;;;;;7.17;1.60;;;;;;;15.36;64.46;100891.41;5100707;28;20040;-78
2021/05/17 00:21:01;;;;;;;12.03;1.80;;;;;;;15.29;64.50;100879.72;5096461;28;20056;-80
2021/05/17 00:23:28;;;;;;;5.05;1.58;;;;;;;15.35;64.79;100881.31;5108579;27;20069;-79
2021/05/17 00:25:55;;;;;;;7.72;1.70;;;;;;;15.27;64.67;100859.47;5104071;28;20051;-75
2021/05/17 00:28:22;;;;;;;6.15;1.60;;;;;;;15.46;64.52;100892.41;5105711;27;20044;-78
2021/05/17 00:30:49;;;;;;;5.87;1.63;;;;;;;15.47;64.47;100889.28;5101253;28;20044;-80
2021/05/17 00:33:16;;;;;;;11.30;1.50;;;;;;;15.50;64.41;100883.03;5106316;27;20040;-69
2021/05/17 00:35:43;;;;;;;6.57;1.58;;;;;;;15.49;64.56;100872.94;5105748;27;20055;-63
2021/05/17 00:38:10;;;;;;;11.02;1.88;;;;;;;15.45;64.37;100869.03;5103839;28;20048;-64
2021/05/17 00:40:37;;;;;;;9.30;2.45;;;;;;;15.39;64.07;100851.41;5104454;27;20050;-64
2021/05/17 00:43:07;;;;;;;11.02;2.20;;;;;;;15.55;64.03;100874.50;5098300;28;20059;-62
2021/05/17 00:45:34;;;;;;;11.30;2.20;;;;;;;15.55;64.29;100868.03;5102357;27;20515;-61
2021/05/17 00:48:02;;;;;;;4.03;2.25;;;;;;;15.51;64.36;100876.25;5099274;27;20055;-66
2021/05/17 00:50:29;;;;;;;8.93;1.88;;;;;;;15.45;64.18;100868.19;5099098;28;20044;-65
2021/05/17 00:52:56;;;;;;;16.98;2.20;;;;;;;15.44;64.00;100855.28;5100297;28;20048;-65
2021/05/17 00:55:25;;;;;;;12.77;2.20;;;;;;;15.54;64.31;100872.84;5105667;27;20042;-64
2021/05/17 00:57:52;;;;;;;7.30;1.87;;;;;;;15.50;63.99;100863.34;5102072;27;20047;-64
2021/05/17 01:00:25;;;;;;;13.85;2.97;;;;;;;15.05;64.21;100783.31;5100937;27;20557;-65
2021/05/17 01:02:52;;;;;;;11.50;2.55;;;;;;;15.53;64.11;100864.72;5106965;27;20382;-64
2021/05/17 01:05:19;;;;;;;12.68;3.00;;;;;;;15.56;64.30;100856.50;5104111;27;20428;-66
2021/05/17 01:07:48;;;;;;;4.57;2.08;;;;;;;15.52;64.24;100849.81;5102009;27;20066;-66
2021/05/17 01:10:18;;;;;;;8.83;2.10;;;;;;;15.46;64.04;100841.75;5105324;27;20043;-63
2021/05/17 01:12:47;;;;;;;13.55;2.28;;;;;;;15.49;63.97;100847.59;5100213;27;20066;-65
2021/05/17 01:15:17;;;;;;;7.47;2.30;;;;;;;15.43;64.13;100836.72;5100097;27;20040;-67
2021/05/17 01:17:44;;;;;;;9.30;2.63;;;;;;;15.51;64.00;100852.91;5105241;28;20478;-67
2021/05/17 01:20:15;;;;;;;13.32;2.45;;;;;;;15.13;64.03;100794.69;5095170;28;20576;-65
2021/05/17 01:22:53;;;;;;;7.68;1.73;;;;;;;15.44;64.14;100855.28;5096898;28;20048;-66
2021/05/17 01:25:24;;;;;;;8.88;2.10;;;;;;;15.38;64.27;100846.06;5099763;28;20051;-66
2021/05/17 01:27:51;;;;;;;5.73;2.20;;;;;;;15.37;64.55;100855.66;5102781;27;20047;-67
2021/05/17 01:30:20;;;;;;;9.18;2.20;;;;;;;15.34;64.55;100861.91;5095715;28;20040;-65
2021/05/17 01:32:47;;;;;;;11.65;2.67;;;;;;;15.28;64.52;100855.53;5105927;28;20043;-63
2021/05/17 01:35:14;;;;;;;9.95;2.20;;;;;;;14.90;64.87;100796.44;5100955;28;20228;-63
2021/05/17 01:37:41;;;;;;;7.70;2.00;;;;;;;15.11;64.69;100842.00;5100505;28;20067;-68
2021/05/17 01:40:10;;;;;;;14.77;2.53;;;;;;;15.03;65.23;100822.16;5099747;28;20043;-68
2021/05/17 01:42:39;;;;;;;7.50;2.13;;;;;;;15.04;65.22;100815.38;5107226;27;20130;-67
2021/05/17 01:45:07;;;;;;;11.18;2.70;;;;;;;15.06;65.45;100815.91;5100099;27;20047;-68
2021/05/17 01:47:42;;;;;;;9.53;2.60;;;;;;;15.07;65.42;100826.03;5098267;28;20048;-68
2021/05/17 01:50:12;;;;;;;8.95;2.70;;;;;;;15.08;65.54;100816.47;5100883;28;20312;-67
2021/05/17 01:52:39;;;;;;;6.55;1.90;;;;;;;15.07;65.26;100812.78;5096601;28;20059;-68
2021/05/17 01:55:09;;;;;;;14.50;2.70;;;;;;;15.08;65.14;100811.66;5100739;28;20043;-69
2021/05/17 01:57:37;;;;;;;9.93;2.58;;;;;;;15.11;65.24;100813.00;5100216;28;20050;-69
2021/05/17 02:00:07;;;;;;;9.67;2.47;;;;;;;15.15;65.18;100819.72;5100443;27;20047;-67
2021/05/17 02:02:35;;;;;;;9.20;2.50;;;;;;;15.16;65.08;100827.84;5101598;27;20043;-68
2021/05/17 02:05:04;;;;;;;8.00;1.75;;;;;;;15.18;65.06;100830.38;5105181;27;20049;-68
2021/05/17 02:07:34;;;;;;;9.27;1.90;;;;;;;15.15;65.15;100814.94;5110199;27;20075;-69
2021/05/17 02:10:06;;;;;;;7.80;2.10;;;;;;;15.07;65.19;100812.78;5097812;27;20048;-72
2021/05/17 02:12:34;;;;;;;19.53;2.80;;;;;;;15.11;65.35;100818.63;5107280;27;20044;-73
2021/05/17 02:15:01;;;;;;;13.52;2.17;;;;;;;15.11;65.00;100810.19;5103434;27;20055;-72
2021/05/17 02:17:28;;;;;;;10.10;2.33;;;;;;;15.06;65.08;100810.28;5100189;28;20054;-73
2021/05/17 02:19:57;;;;;;;11.10;2.30;;;;;;;15.10;64.92;100800.09;5100633;28;20517;-73
2021/05/17 02:22:24;;;;;;;9.83;2.93;;;;;;;15.15;64.76;100814.09;5103760;27;20059;-73
2021/05/17 02:24:51;;;;;;;4.80;1.23;;;;;;;15.11;64.69;100808.25;5095417;28;20069;-71
2021/05/17 02:27:18;;;;;;;8.87;1.67;;;;;;;15.00;64.36;100803.06;5103176;27;20161;-72
2021/05/17 02:29:45;;;;;;;7.50;2.13;;;;;;;15.17;64.41;100825.88;5099348;28;20054;-74
2021/05/17 02:32:23;;;;;;;11.47;1.77;;;;;;;15.15;64.41;100833.78;5093589;28;20150;-69
2021/05/17 02:34:51;;;;;;;10.03;1.90;;;;;;;15.15;64.48;100836.59;5096625;28;20048;-70
2021/05/17 02:37:19;;;;;;;10.38;2.20;;;;;;;15.03;64.71;100827.78;5100526;28;20051;-71
2021/05/17 02:39:46;;;;;;;11.50;2.50;;;;;;;14.97;64.92;100823.34;5097113;27;20469;-67
2021/05/17 02:42:17;;;;;;;11.20;2.03;;;;;;;14.44;64.58;100743.66;5100845;28;20035;-69
2021/05/17 02:44:44;;;;;;;7.60;3.10;;;;;;;14.95;64.57;100815.25;5097277;28;20130;-69
2021/05/17 02:47:11;;;;;;;8.73;2.23;;;;;;;14.88;64.66;100807.19;5102065;28;20127;-69
2021/05/17 02:49:38;;;;;;;14.93;2.23;;;;;;;14.86;64.62;100806.63;5098586;28;20036;-71
2021/05/17 02:52:06;;;;;;;10.37;2.53;;;;;;;14.91;64.89;100805.75;5094924;28;20052;-69
2021/05/17 02:54:41;;;;;;;7.47;1.80;;;;;;;14.83;64.94;100796.00;5102061;27;20419;-68
2021/05/17 02:57:13;;;;;;;6.53;2.00;;;;;;;14.78;64.91;100798.06;5096869;28;20057;-68
2021/05/17 03:00:03;;;;;;;6.83;1.77;;;;;;;14.76;64.99;100803.97;5103057;27;20047;-69
2021/05/17 03:02:32;;;;;;;;;;;;;;;14.80;64.90;100801.38;5097403;28;20052;-68
2021/05/17 03:05:00;;;;;;;10.07;2.00;;;;;;;14.72;64.97;100793.63;5101940;27;20300;-69
2021/05/17 03:07:30;;;;;;;7.97;1.80;;;;;;;14.50;65.46;100781.00;5098830;28;20044;-69
2021/05/17 03:09:58;;;;;;;7.97;1.67;;;;;;;14.50;65.46;100788.56;5101906;28;21161;-70
2021/05/17 03:12:28;;;;;;;7.37;2.87;;;;;;;14.27;65.90;100774.25;5101483;27;20048;-71
2021/05/17 03:14:57;;;;;;;7.47;1.85;;;;;;;14.20;66.29;100794.25;5102864;28;20051;-68
2021/05/17 03:17:27;;;;;;;10.80;1.63;;;;;;;14.19;66.49;100805.81;5103056;28;20048;-73
2021/05/17 03:19:54;;;;;;;11.40;2.57;;;;;;;14.14;66.76;100822.72;5098874;27;20048;-72
2021/05/17 03:22:23;;;;;;;5.43;2.00;;;;;;;14.07;67.40;100816.63;5101156;28;20044;-73
2021/05/17 03:24:53;;;;;;;10.93;2.13;;;;;;;14.01;67.61;100823.41;5097502;28;20912;-72
2021/05/17 03:27:28;;;;;;;9.40;2.33;;;;;;;13.94;67.50;100802.13;5097568;27;20043;-69
2021/05/17 03:29:55;;;;;;;9.90;2.50;;;;;;;14.15;67.37;100830.00;5096883;28;20052;-69
2021/05/17 03:32:24;;;;;;;7.80;2.60;;;;;;;14.19;66.93;100829.13;5093452;28;20052;-68
2021/05/17 03:34:52;;;;;;;9.63;2.10;;;;;;;14.31;67.00;100839.91;5097249;28;20044;-69
2021/05/17 03:37:19;;;;;;;6.83;2.67;;;;;;;14.37;66.86;100849.97;5099031;28;20126;-72
2021/05/17 03:39:48;;;;;;;13.73;1.90;;;;;;;14.51;66.55;100857.72;5091980;28;20050;-70
2021/05/17 03:42:15;;;;;;;10.33;3.80;;;;;;;14.55;66.76;100855.97;5114952;22;20039;-70
2021/05/17 03:44:42;;;;;;;9.70;2.63;;;;;;;14.42;66.69;100841.47;5100264;28;20047;-69
2021/05/17 03:47:09;;;;;;;10.43;3.03;;;;;;;14.56;66.80;100866.06;5104669;28;20054;-69
2021/05/17 03:49:36;;;;;;;5.33;2.17;;;;;;;14.53;66.81;100869.47;5093513;28;20406;-70
2021/05/17 03:52:03;;;;;;;10.50;2.43;;;;;;;14.49;66.72;100857.13;5085441;28;20410;-67
2021/05/17 03:54:30;;;;;;;5.80;1.87;;;;;;;14.48;66.75;100861.09;5098471;28;21149;-67
2021/05/17 03:56:58;;;;;;;8.13;2.33;;;;;;;14.43;66.82;100859.19;5093637;28;20054;-75
2021/05/17 03:59:25;;;;;;;9.97;2.20;;;;;;;14.42;66.86;100860.31;5097937;27;20047;-69
2021/05/17 04:01:52;;;;;;;5.93;2.40;;;;;;;14.38;66.79;100868.50;5092811;28;20047;-69
2021/05/17 04:04:21;;;;;;;5.23;2.77;;;;;;;14.35;66.80;100865.44;5093125;28;20464;-70
2021/05/17 04:15:39;;;;;;;5.33;2.20;;;;;;;13.90;67.19;100834.75;5072822;28;20048;-71
2021/05/17 04:18:06;;;;;;;8.80;2.20;;;;;;;14.12;67.33;100876.38;5075210;28;20513;-77
2021/05/17 04:20:32;;;;;;;7.67;2.50;;;;;;;14.21;67.33;100890.59;5076937;28;20484;-73
2021/05/17 04:23:00;;;;;;;3.73;2.10;;;;;;;14.18;67.30;100880.78;5077620;28;20514;-73
2021/05/17 04:25:27;;;;;;;5.90;2.33;;;;;;;14.16;67.37;100896.28;5074518;28;20044;-69
2021/05/17 04:27:54;;;;;;;5.33;2.50;;;;;;;14.14;67.35;100895.72;5076673;28;20058;-65
2021/05/17 04:30:21;;;;;;;8.20;2.33;;;;;;;14.11;67.32;100893.50;5073853;28;20056;-63
2021/05/17 04:32:48;;;;;;;4.63;2.40;;;;;;;14.08;67.41;100891.28;5075946;28;20055;-64
2021/05/17 04:35:15;;;;;;;5.77;2.07;;;;;;;13.96;67.44;100889.72;5072682;28;20135;-66
2021/05/17 04:37:42;;;;;;;8.50;3.40;;;;;;;14.01;67.43;100907.66;5071141;28;20041;-66
2021/05/17 04:40:11;;;;;;;13.03;2.97;;;;;;;13.85;67.54;100890.13;5070280;28;20051;-63
2021/05/17 04:42:37;;;;;;;10.00;2.67;;;;;;;13.96;67.39;100911.34;5070844;28;20051;-64
2021/05/17 04:45:05;;;;;;;9.00;2.83;;;;;;;13.84;67.54;100891.22;5069677;28;20387;-65
2021/05/17 04:47:32;;;;;;;12.57;3.37;;;;;;;13.95;67.60;100907.72;5075137;28;20048;-67
2021/05/17 04:49:59;;;;;;;8.43;2.60;;;;;;;13.96;67.63;100900.94;5072111;28;20049;-67
2021/05/17 04:52:26;;;;;;;7.97;2.33;;;;;;;13.98;67.79;100895.03;5070613;28;20050;-69
2021/05/17 04:54:53;;;;;;;8.40;2.50;;;;;;;13.97;67.74;100894.19;5071083;28;20048;-65
2021/05/17 04:57:19;;;;;;;12.03;4.13;;;;;;;13.99;67.73;100894.75;5079329;28;20123;-67
2021/05/17 05:00:00;;;;;;;16.87;3.33;;;;;;;13.99;67.79;100896.72;5075178;28;20501;-66
2021/05/17 05:02:27;;;;;;;9.37;2.80;;;;;;;13.97;67.78;100902.63;5073540;28;20076;-64
2021/05/17 05:04:54;;;;;;;6.87;2.37;;;;;;;13.97;67.83;100902.63;5074420;28;20445;-66
2021/05/17 05:07:21;;;;;;;9.33;2.20;;;;;;;13.95;67.71;100899.28;5078590;28;20049;-66
2021/05/17 05:09:48;;;;;;;6.13;2.00;;;;;;;13.92;67.75;100894.25;5074270;28;20051;-68
2021/05/17 05:12:15;;;;;;;8.50;2.60;;;;;;;13.91;67.74;100898.22;5078777;28;20051;-67
2021/05/17 05:14:42;;;;;;;15.53;2.93;;;;;;;13.95;67.81;100899.28;5073628;28;20155;-67
2021/05/17 05:17:09;;;;;;;28.23;3.27;;;;;;;13.89;67.64;100874.34;5077148;28;20437;-68
2021/05/17 05:19:35;;;;;;;20.53;3.10;;;;;;;14.03;67.71;100899.78;5073101;28;20410;-66
2021/05/17 05:22:02;;;;;;;11.27;2.80;;;;;;;14.06;67.63;100896.38;5077885;28;20055;-67
2021/05/17 05:24:29;;;;;;;6.73;2.60;;;;;;;13.99;67.36;100888.31;5079667;28;20458;-71
2021/05/17 05:29:41;;;;;;;10.00;2.70;;;;;;;14.09;67.48;100888.19;5075375;28;20044;-72
2021/05/17 05:34:47;;;;;;;7.93;2.57;;;;;;;13.98;67.59;100876.25;5076033;28;20069;-76
2021/05/17 05:37:14;;;;;;;9.63;2.60;;;;;;;14.05;67.42;100894.69;5080181;28;20077;-74
2021/05/17 05:39:42;;;;;;;14.67;3.20;;;;;;;14.12;67.41;100892.38;5072560;28;20044;-62
2021/05/17 05:42:10;;;;;;;6.93;2.17;;;;;;;14.15;67.36;100887.03;5070122;28;20543;-62
2021/05/17 05:44:44;;;;;;;6.23;2.33;;;;;;;14.13;67.28;100877.22;5077177;28;20058;-63
2021/05/17 05:47:15;;;;;;;10.30;2.30;;;;;;;14.28;67.25;100888.28;5078088;28;20048;-64
2021/05/17 05:49:46;;;;;;;5.07;1.87;;;;;;;14.18;67.24;100880.78;5079330;28;20123;-61
2021/05/17 05:52:15;;;;;;;6.73;2.10;;;;;;;14.29;67.13;100898.41;5075807;28;20043;-63
2021/05/17 05:54:44;;;;;;;9.63;2.10;;;;;;;14.37;67.09;100908.97;5075450;28;20165;-66
2021/05/17 05:57:11;;;;;;;11.60;2.70;;;;;;;14.40;67.01;100908.38;5076782;28;20513;-71
2021/05/17 05:59:38;;;;;;;8.00;2.00;;;;;;;14.38;67.00;100913.44;5079657;28;20050;-68
2021/05/17 06:02:05;;;;;;;14.30;2.57;;;;;;;14.43;66.94;100919.03;5076068;28;20040;-66
2021/05/17 06:04:32;;;;;;;6.67;2.03;;;;;;;14.48;66.92;100922.91;5075247;28;20040;-66
2021/05/17 06:06:59;;;;;;;7.53;2.00;;;;;;;14.54;67.11;100921.75;5073248;28;20044;-65
2021/05/17 06:09:27;;;;;;;7.97;2.00;;;;;;;14.55;66.91;100921.44;5075791;28;20044;-64
2021/05/17 06:11:55;;;;;;;5.70;1.90;;;;;;;14.56;66.79;100927.91;5079781;28;20393;-64
2021/05/17 06:14:23;;;;;;;6.53;1.87;;;;;;;14.56;66.77;100920.31;5073608;28;20089;-65
2021/05/17 06:16:50;;;;;;;12.10;2.30;;;;;;;14.56;66.61;100913.84;5074388;28;20044;-65
2021/05/17 06:19:17;;;;;;;13.73;3.37;;;;;;;14.55;67.02;100920.63;5075299;28;20052;-65
2021/05/17 06:21:46;;;;;;;6.10;2.20;;;;;;;14.69;67.44;100907.50;5072880;28;20057;-64
2021/05/17 06:24:14;;;;;;;7.67;2.40;;;;;;;14.99;66.91;100911.09;5071108;28;20146;-65
2021/05/17 06:26:41;;;;;;;19.03;2.70;;;;;;;15.11;66.69;100919.91;5072340;28;20223;-66
2021/05/17 06:29:08;;;;;;;5.77;2.17;;;;;;;15.23;66.69;100923.13;5068451;28;20060;-64
2021/05/17 06:31:44;;;;;;;9.67;2.30;;;;;;;15.31;66.40;100936.50;5072178;28;20148;-66
2021/05/17 06:34:11;;;;;;;11.23;2.30;;;;;;;15.35;66.45;100939.53;5078139;28;20050;-63
2021/05/17 06:36:38;;;;;;;14.20;3.13;;;;;;;15.55;66.37;100942.06;5075115;28;20049;-65
2021/05/17 06:39:07;;;;;;;5.18;2.25;;;;;;;15.58;65.76;100954.69;5072814;28;20048;-66
2021/05/17 06:41:34;;;;;;;6.90;2.65;;;;;;;15.57;66.00;100965.13;5075379;28;20054;-63
2021/05/17 06:44:02;;;;;;;8.85;2.85;;;;;;;15.52;65.95;100964.34;5075829;28;20056;-65
2021/05/17 06:46:29;;;;;;;11.70;3.43;;;;;;;15.47;66.24;100972.88;5077259;28;20132;-64
2021/05/17 06:48:57;;;;;;;10.52;3.10;;;;;;;15.46;66.35;100966.41;5069172;28;20040;-63
2021/05/17 06:51:24;;;;;;;7.53;2.97;;;;;;;15.48;66.30;100952.03;5069593;28;20127;-64
2021/05/17 06:53:55;;;;;;;6.55;2.90;;;;;;;15.73;66.15;100964.94;5069093;28;20054;-65
2021/05/17 06:56:45;;;;;;;6.18;2.60;;;;;;;15.82;66.21;100969.53;5069903;28;20832;-65
2021/05/17 06:59:14;;;;;;;13.38;2.90;;;;;;;15.89;66.00;100974.78;5071487;28;20036;-64
2021/05/17 07:01:41;;;;;;;8.32;3.50;;;;;;;15.98;65.68;100986.22;5071826;28;20044;-67
2021/05/17 07:04:11;;;;;;;10.30;3.13;;;;;;;16.09;65.87;100988.53;5074933;28;20527;-64
2021/05/17 07:06:40;;;;;;;5.82;2.60;;;;;;;16.22;65.67;100986.94;5070417;28;20055;-63
2021/05/17 07:12:06;;;;;;;9.75;3.70;;;;;;;16.89;65.07;101009.16;5071800;28;20056;-68
2021/05/17 07:14:33;;;;;;;8.50;3.00;;;;;;;17.28;64.57;101016.25;5071776;28;20036;-70
2021/05/17 07:17:00;;;;;;;7.35;3.22;;;;;;;17.62;64.07;101009.31;5074752;28;20098;-70
2021/05/17 07:19:27;;;;;;;10.23;2.92;;;;;;;17.96;63.18;101006.00;5075140;28;20135;-67
2021/05/17 08:01:30;;;;;;;7.97;2.95;;;;;;;21.36;53.78;101008.31;4912978;29;20105;-61
2021/05/17 08:03:57;;;;;;;7.55;2.40;;;;;;;21.37;53.09;101005.13;4916397;29;20095;-61
2021/05/17 08:06:24;;;;;;;6.10;2.25;;;;;;;21.51;52.80;101005.72;4917065;29;20043;-61
2021/05/17 08:08:52;;;;;;;9.75;2.55;;;;;;;21.39;52.70;101002.78;4915962;29;20534;-61
2021/05/17 08:11:20;;;;;;;8.35;2.97;;;;;;;21.39;52.52;100976.38;4916006;29;20059;-61
2021/05/17 08:13:48;;;;;;;11.52;3.60;;;;;;;21.60;52.42;100982.09;4915894;29;20083;-61
2021/05/17 08:16:20;;;;;;;5.03;2.25;;;;;;;21.92;51.66;100989.03;4915833;29;20079;-67
2021/05/17 08:18:48;;;;;;;8.38;2.97;;;;;;;22.43;51.33;101002.00;4914696;29;20075;-63
2021/05/17 08:21:16;;;;;;;7.88;2.78;;;;;;;22.81;50.66;101006.59;4916828;29;20078;-64
2021/05/17 08:23:43;;;;;;;7.78;3.53;;;;;;;22.91;49.67;100966.28;4915974;29;20060;-64
2021/05/17 08:26:10;;;;;;;11.88;3.38;;;;;;;23.48;49.01;101003.59;4916151;29;20183;-63
2021/05/17 08:28:40;;;;;;;7.05;2.42;;;;;;;23.89;47.88;101000.44;4916106;29;20447;-62
2021/05/17 08:31:10;;;;;;;7.75;1.98;;;;;;;24.27;47.23;101006.88;4915670;29;20052;-62
2021/05/17 08:33:39;;;;;;;6.43;2.35;;;;;;;24.53;46.37;101009.28;4915872;29;20084;-62
2021/05/17 08:36:07;;;;;;;7.03;2.13;;;;;;;24.77;45.87;101020.59;4916163;29;20411;-62
2021/05/17 08:38:35;;;;;;;6.47;1.58;;;;;;;24.95;44.78;101026.78;4917968;29;20049;-64
2021/05/17 08:41:03;;;;;;;5.78;1.92;;;;;;;24.98;43.85;100994.63;4920324;29;20052;-63
2021/05/17 08:43:30;;;;;;;6.32;2.08;;;;;;;25.02;43.58;101006.97;4920186;29;20102;-63
2021/05/17 08:45:57;;;;;;;4.82;1.20;;;;;;;25.23;43.12;101015.31;4919929;29;20051;-62
2021/05/17 08:48:24;;;;;;;8.30;2.00;;;;;;;25.39;42.76;101009.56;4919767;29;20546;-63
2021/05/17 08:50:51;;;;;;;6.78;1.70;;;;;;;25.59;42.47;101004.75;4919603;29;20052;-63
2021/05/17 08:53:18;;;;;;;5.75;1.70;;;;;;;25.62;42.31;101009.72;4918157;29;20079;-62
2021/05/17 08:55:45;;;;;;;10.02;2.63;;;;;;;25.67;42.22;101003.69;4919751;29;20139;-62
2021/05/17 08:58:12;;;;;;;3.35;1.45;;;;;;;25.49;41.26;100968.16;4919398;29;20064;-63
2021/05/17 09:00:40;;;;;;;3.53;1.17;;;;;;;25.80;41.05;100998.72;4931504;29;20095;-63
2021/05/17 09:03:07;;;;;;;3.75;1.58;;;;;;;25.67;40.81;100992.25;4938585;29;20071;-63
2021/05/17 09:05:37;;;;;;;4.80;1.25;;;;;;;25.73;40.69;100996.50;4921880;29;20420;-63
2021/05/17 09:08:05;;;;;;;6.03;1.33;;;;;;;26.11;39.81;101000.63;4938515;29;20050;-62
2021/05/17 09:10:37;;;;;;;5.10;1.42;;;;;;;26.19;39.40;100991.03;4938253;29;20051;-62
2021/05/17 09:13:08;;;;;;;3.30;1.38;;;;;;;26.49;38.65;101004.72;4938060;29;20095;-62
2021/05/17 09:15:52;;;;;;;7.07;1.52;;;;;;;26.48;38.73;100982.22;4938209;29;20451;-65
2021/05/17 09:18:22;;;;;;;8.50;1.75;;;;;;;26.87;38.18;100997.28;4938734;29;20099;-62
2021/05/17 09:20:51;;;;;;;3.95;0.95;;;;;;;26.93;37.61;101001.47;4938396;29;20481;-64
2021/05/17 09:23:30;;;;;;;5.53;2.33;;;;;;;27.05;38.13;100981.25;4938497;29;20047;-63
2021/05/17 09:26:06;;;;;;;3.85;1.23;;;;;;;27.19;37.13;100997.06;4938124;29;20351;-63
2021/05/17 09:28:39;;;;;;;4.50;1.38;;;;;;;27.31;36.62;100997.66;4938130;29;20126;-63
2021/05/17 09:31:14;;;;;;;4.13;1.20;;;;;;;27.38;36.79;100999.81;4937898;29;20554;-62
2021/05/17 09:34:02;;;;;;;4.82;1.30;;;;;;;27.61;35.98;101009.22;4937630;29;20098;-62
2021/05/17 09:36:30;;;;;;;4.03;1.52;;;;;;;27.61;35.91;100991.19;4937737;29;20048;-63
2021/05/17 09:39:00;;;;;;;7.20;1.50;;;;;;;27.85;35.64;100999.34;4939419;29;20043;-63
2021/05/17 09:41:37;;;;;;;2.35;1.17;;;;;;;27.94;35.58;101001.97;4939305;29;20126;-63
2021/05/17 09:44:05;;;;;;;4.53;1.13;;;;;;;28.06;35.12;100995.13;4938059;29;20131;-63
2021/05/17 09:46:59;;;;;;;4.40;1.60;;;;;;;27.99;35.78;101001.59;4937957;29;20078;-62
2021/05/17 09:49:28;;;;;;;4.15;1.25;;;;;;;27.92;34.73;100961.31;4937271;29;20043;-63
2021/05/17 09:52:20;;;;;;;7.78;1.27;;;;;;;28.33;34.96;101004.50;4937708;29;20048;-63
2021/05/17 09:55:08;;;;;;;8.55;1.35;;;;;;;28.39;34.72;101008.72;4937736;29;20051;-63
2021/05/17 09:57:48;;;;;;;6.05;1.70;;;;;;;28.45;34.59;101007.16;4905481;29;20495;-63
2021/05/17 10:00:32;;;;;;;4.30;1.90;;;;;;;28.56;33.66;100993.75;4937317;29;20122;-62
2021/05/17 10:03:02;;;;;;;7.55;1.40;;;;;;;28.68;33.01;101012.75;4937344;29;20051;-62
2021/05/17 10:05:35;;;;;;;2.55;1.50;;;;;;;28.74;33.42;101004.59;4937577;29;20051;-62
2021/05/17 10:08:16;;;;;;;3.03;1.23;;;;;;;28.94;32.27;101008.94;4937189;29;20052;-63
2021/05/17 10:10:43;;;;;;;4.55;1.50;;;;;;;28.95;32.54;101016.31;4937294;29;20052;-63
2021/05/17 10:13:11;;;;;;;5.85;2.17;;;;;;;28.99;31.80;101002.84;4936937;29;20516;-63
2021/05/17 10:15:38;;;;;;;6.20;1.50;;;;;;;29.12;31.70;101002.53;4937505;29;20115;-62
2021/05/17 10:18:12;;;;;;;4.75;1.30;;;;;;;29.25;31.02;100998.16;4937085;29;20051;-63
2021/05/17 10:20:39;;;;;;;4.90;1.52;;;;;;;29.45;30.49;101010.22;4937138;29;20442;-63
2021/05/17 10:23:07;;;;;;;3.28;1.67;;;;;;;29.18;31.24;100960.69;4936589;29;20058;-63
2021/05/17 10:25:38;;;;;;;4.80;1.15;;;;;;;29.58;30.83;101013.63;4937298;29;20448;-63
2021/05/17 10:28:22;;;;;;;5.00;1.75;;;;;;;29.56;31.29;101001.69;4936614;29;20102;-64
2021/05/17 10:30:50;;;;;;;6.75;1.38;;;;;;;29.71;30.95;101003.44;4936375;29;20375;-61
2021/05/17 10:33:20;;;;;;;5.93;1.55;;;;;;;29.83;30.48;100987.91;4936076;29;20086;-60
2021/05/17 10:35:49;;;;;;;5.93;1.60;;;;;;;29.74;30.06;100956.59;4936654;29;20083;-60
2021/05/17 10:38:29;;;;;;;5.53;1.77;;;;;;;29.84;30.00;100978.84;4936717;29;20530;-61
2021/05/17 10:46:53;;;;;;;3.47;1.92;;;;;;;30.01;29.69;100993.75;4936188;29;20067;-61
2021/05/17 10:49:26;;;;;;;3.13;1.55;;;;;;;30.27;29.78;100999.28;4936629;29;20518;-61
2021/05/17 10:51:57;;;;;;;4.03;1.33;;;;;;;30.31;29.06;100997.22;4920102;29;20102;-60
2021/05/17 10:54:27;;;;;;;5.68;2.13;;;;;;;30.27;29.92;100996.41;4936658;29;20094;-60
2021/05/17 10:57:01;;;;;;;3.83;1.55;;;;;;;30.36;29.59;100981.59;4936461;29;20102;-60
2021/05/17 11:02:30;;;;;;;10.80;2.10;;;;;;;30.35;29.48;100991.47;4936139;29;20127;-59
2021/05/17 11:05:00;;;;;;;6.63;1.65;;;;;;;30.27;29.68;100947.41;4936724;29;20102;-60
2021/05/17 11:07:29;;;;;;;4.45;1.70;;;;;;;30.56;29.41;100976.31;4936245;29;20071;-60
2021/05/17 11:10:06;;;;;;;6.68;1.50;;;;;;;30.38;29.60;100956.91;4936082;29;20055;-61
2021/05/17 11:12:36;;;;;;;7.88;2.10;;;;;;;30.77;29.07;100984.22;4936157;29;20051;-60
2021/05/17 11:15:09;;;;;;;9.02;2.28;;;;;;;30.82;28.83;100993.28;4936325;29;20075;-59
2021/05/17 11:17:52;;;;;;;6.65;2.03;;;;;;;30.21;29.40;100984.44;4936361;29;20047;-60
2021/05/17 11:23:09;;;;;;;7.93;2.15;;;;;;;30.44;28.95;100989.88;4936639;29;20445;-60
2021/05/17 11:25:50;;;;;;;5.53;1.45;;;;;;;30.54;29.32;100964.38;4936097;29;20047;-60
2021/05/17 11:28:34;;;;;;;6.28;2.47;;;;;;;30.72;28.87;100953.69;4935829;29;20435;-60
2021/05/17 11:31:05;;;;;;;4.72;1.70;;;;;;;30.78;28.58;100952.09;4936385;29;20051;-61
2021/05/17 11:33:56;;;;;;;4.22;1.58;;;;;;;30.96;29.38;100963.66;4936106;29;20083;-61
2021/05/17 11:36:26;;;;;;;7.28;1.80;;;;;;;31.30;28.35;100978.50;4919214;29;20048;-60
2021/05/17 11:39:15;;;;;;;7.95;3.80;;;;;;;31.41;28.18;100969.03;4935600;29;20058;-61
2021/05/17 11:41:58;;;;;;;9.98;5.03;;;;;;;31.41;28.35;100946.75;4935832;29;20055;-60
2021/05/17 11:47:23;;;;;;;6.50;1.90;;;;;;;32.04;27.40;100955.72;4935766;29;20148;-61
2021/05/17 11:49:52;;;;;;;4.50;1.70;;;;;;;32.26;26.73;100948.59;4935743;29;20079;-62
2021/05/17 11:52:30;;;;;;;5.05;1.60;;;;;;;32.53;26.79;100945.19;4935716;29;20095;-62
2021/05/17 11:54:59;;;;;;;8.02;2.35;;;;;;;32.70;25.58;100937.63;4935738;29;20166;-60
2021/05/17 11:57:33;;;;;;;;;;;;;;;32.53;28.30;100945.19;4936180;29;20106;-60
2021/05/17 12:00:07;;;;;;;3.00;1.40;;;;;;;32.88;25.93;100943.28;4935379;29;19923;-60
2021/05/17 12:02:33;;;;;;;5.30;1.48;;;;;;;33.48;25.15;100959.38;4935266;29;20118;-62
2021/05/17 12:05:00;;;;;;;6.22;1.60;;;;;;;33.91;23.82;100953.91;4935453;29;20055;-61
2021/05/17 12:07:27;;;;;;;6.63;1.60;;;;;;;34.72;23.76;100972.78;4935807;29;20483;-62
2021/05/17 12:09:56;;;;;;;5.18;1.60;;;;;;;35.40;22.66;100955.09;4935530;29;20522;-60
2021/05/17 12:12:30;;;;;;;5.10;1.50;;;;;;;35.97;21.46;100965.66;4918609;29;20043;-60
2021/05/17 12:15:08;;;;;;;6.28;1.70;;;;;;;35.93;22.01;100956.16;4935396;29;20094;-57
2021/05/17 12:17:37;;;;;;;5.15;1.77;;;;;;;34.84;22.77;100975.91;4935472;29;20051;-57
2021/05/17 12:20:07;;;;;;;5.43;1.65;;;;;;;34.33;23.71;100977.03;4935576;29;20083;-58
2021/05/17 12:22:40;;;;;;;5.72;2.35;;;;;;;34.02;23.85;100959.63;4935413;29;20517;-57
2021/05/17 12:25:10;;;;;;;6.43;1.92;;;;;;;33.66;24.25;100954.19;4935461;29;20052;-57
2021/05/17 12:27:38;;;;;;;9.23;1.80;;;;;;;33.68;24.40;100951.72;4936155;29;20051;-57
2021/05/17 12:30:06;;;;;;;5.68;1.92;;;;;;;34.05;24.14;100957.91;4935237;29;20095;-57
2021/05/17 12:32:34;;;;;;;7.07;1.70;;;;;;;34.18;23.83;100959.00;4919295;29;20086;-57
2021/05/17 12:35:02;;;;;;;4.03;1.50;;;;;;;34.03;23.89;100940.97;4935260;29;20095;-58
2021/05/17 12:37:32;;;;;;;4.97;1.92;;;;;;;33.86;24.18;100919.63;4918382;29;20087;-57
2021/05/17 12:40:39;;;;;;;3.83;1.42;;;;;;;34.06;24.27;100931.41;4935374;29;20075;-58
2021/05/17 12:43:20;;;;;;;4.65;1.70;;;;;;;33.82;24.38;100938.31;4925058;29;20044;-57
2021/05/17 12:45:47;;;;;;;6.93;1.98;;;;;;;33.67;24.68;100955.84;4935300;29;20486;-57
2021/05/17 12:48:20;;;;;;;10.13;2.17;;;;;;;34.48;24.33;100934.97;4935562;29;20393;-58